ダルエスサラーム の空港の天気 - METARとTAF

ジュリウス・ニエレレ国際空港(ダルエスサラーム) ( HTDA / DAR ) - タンザニア ダルエスサラーム
飛行場実況気象(Metar)
観測時間10/19 21:00 EAT (10/19 18:00 UTC)
風向・風速北東 5m/s
視程10km以上
天気現象
少しの雲 雲底高度 490m
気温26℃
湿度89%
気圧1012hPa
METARHTDA 191800Z 05010KT 9999 FEW016 26/24 Q1012 NOSIG
過去の天気等 Google飛行場航空写真 Wunderground天気予報

過去48時間のMETAR

飛行場予報(TAF)
発表時間: 10/19 20:00 EAT (10/19 17:00 UTC)
予報対象時間: 19日21時 EAT ~ 21日3時 EAT
風向・風速北北東 3m/s
視程10km以上
全天の4割程度の雲 雲底高度 490m
20日8時 EAT ~ 20日11時 EAT に徐々に
風向・風速東北東 8m/s
全天の8割程度の雲 雲底高度 730m
20日16時 EAT ~ 20日19時 EAT に徐々に
全天の4割程度の雲 雲底高度 790m
20日22時 EAT ~ 21日1時 EAT に徐々に
風向・風速北東 3m/s
TAF HTDA 191700Z 1918/2024 03005KT 9999 SCT016
BECMG 2005/2008 06015KT BKN024
BECMG 2013/2016 SCT026
BECMG 2019/2022 04005KT